Time,TemperatureF,DewpointF,PressureIn,WindDirection,WindDirectionDegrees,WindSpeedMPH,WindSpeedGustMPH,Humidity,HourlyPrecipIn,Conditions,Clouds,dailyrainin,SoftwareType,DateUTC
2013-03-22 00:02:00,65.0,57.0,29.63,SE,145,2.0,10.0,76,0.00,,,0.00,,2013-03-22 05:02:00,
2013-03-22 00:12:00,65.0,57.0,29.63,SE,145,2.0,10.0,76,0.00,,,0.00,,2013-03-22 05:12:00,
2013-03-22 00:22:00,65.0,57.0,29.63,ENE,74,0.0,10.0,76,0.00,,,0.00,,2013-03-22 05:22:00,
2013-03-22 00:32:00,65.0,58.0,29.62,ENE,68,1.0,7.0,77,0.00,,,0.00,,2013-03-22 05:32:00,
2013-03-22 00:42:00,65.0,58.0,29.62,ENE,68,1.0,7.0,77,0.00,,,0.00,,2013-03-22 05:42:00,
2013-03-22 00:52:00,65.0,58.0,29.62,ENE,58,2.0,6.0,78,0.00,,,0.00,,2013-03-22 05:52:00,
2013-03-22 01:02:00,65.0,58.0,29.62,ENE,73,1.0,7.0,79,0.00,,,0.00,,2013-03-22 06:02:00,
2013-03-22 01:13:00,65.0,58.0,29.62,ENE,73,1.0,7.0,79,0.00,,,0.00,,2013-03-22 06:13:00,
2013-03-22 01:22:00,65.0,58.0,29.62,WSW,239,1.0,8.0,79,0.00,,,0.00,,2013-03-22 06:22:00,
2013-03-22 01:32:00,65.0,59.0,29.62,East,82,1.0,6.0,80,0.00,,,0.00,,2013-03-22 06:32:00,
2013-03-22 01:42:00,65.0,59.0,29.62,East,82,1.0,6.0,80,0.00,,,0.00,,2013-03-22 06:42:00,
2013-03-22 01:52:00,65.0,59.0,29.62,NE,56,0.0,9.0,81,0.00,,,0.00,,2013-03-22 06:52:00,
2013-03-22 02:02:00,65.0,59.0,29.62,SW,231,0.0,6.0,81,0.00,,,0.00,,2013-03-22 07:02:00,
2013-03-22 02:12:00,65.0,59.0,29.62,SW,231,0.0,6.0,81,0.00,,,0.00,,2013-03-22 07:12:00,
2013-03-22 02:22:00,65.0,59.0,29.62,NNE,15,1.0,4.0,82,0.00,,,0.00,,2013-03-22 07:22:00,
2013-03-22 02:32:00,65.0,59.0,29.62,East,81,2.0,6.0,82,0.00,,,0.00,,2013-03-22 07:32:00,
2013-03-22 02:42:00,65.0,59.0,29.62,East,81,2.0,6.0,82,0.00,,,0.00,,2013-03-22 07:42:00,
2013-03-22 02:52:00,65.0,59.0,29.61,ENE,63,1.0,6.0,82,0.00,,,0.00,,2013-03-22 07:52:00,
2013-03-22 03:03:00,65.0,59.0,29.60,SSE,157,0.0,6.0,82,0.00,,,0.00,,2013-03-22 08:03:00,
2013-03-22 03:12:00,65.0,59.0,29.60,SSE,157,0.0,6.0,82,0.00,,,0.00,,2013-03-22 08:12:00,
2013-03-22 03:22:00,65.0,59.0,29.60,ENE,76,1.0,13.0,82,0.00,,,0.00,,2013-03-22 08:22:00,
2013-03-22 03:32:00,65.0,59.0,29.61,East,84,1.0,5.0,82,0.00,,,0.00,,2013-03-22 08:32:00,
2013-03-22 03:42:00,65.0,59.0,29.61,East,84,1.0,5.0,82,0.00,,,0.00,,2013-03-22 08:42:00,
2013-03-22 03:52:00,65.0,60.0,29.60,SSE,153,2.0,7.0,83,0.00,,,0.00,,2013-03-22 08:52:00,
2013-03-22 04:02:00,65.0,59.0,29.59,East,86,1.0,11.0,82,0.00,,,0.00,,2013-03-22 09:02:00,
2013-03-22 04:12:00,65.0,59.0,29.59,East,86,1.0,11.0,82,0.00,,,0.00,,2013-03-22 09:12:00,
2013-03-22 04:22:00,65.0,59.0,29.59,ENE,58,0.0,8.0,82,0.00,,,0.00,,2013-03-22 09:22:00,
2013-03-22 04:32:00,65.0,59.0,29.59,SSE,150,1.0,7.0,82,0.00,,,0.00,,2013-03-22 09:32:00,
2013-03-22 04:42:00,65.0,59.0,29.59,SSE,150,1.0,7.0,82,0.00,,,0.00,,2013-03-22 09:42:00,
2013-03-22 04:53:00,65.0,60.0,29.59,NW,313,1.0,8.0,83,0.00,,,0.00,,2013-03-22 09:53:00,
2013-03-22 05:03:00,65.0,60.0,29.59,SE,134,2.0,8.0,84,0.00,,,0.00,,2013-03-22 10:03:00,
2013-03-22 05:12:00,65.0,60.0,29.59,SE,134,2.0,8.0,84,0.00,,,0.00,,2013-03-22 10:12:00,
2013-03-22 05:22:00,65.0,60.0,29.60,East,90,2.0,6.0,84,0.00,,,0.00,,2013-03-22 10:22:00,
2013-03-22 05:32:00,65.0,60.0,29.60,SSE,162,0.0,6.0,84,0.00,,,0.00,,2013-03-22 10:32:00,
2013-03-22 05:42:00,65.0,60.0,29.60,SSE,162,0.0,6.0,84,0.00,,,0.00,,2013-03-22 10:42:00,
2013-03-22 05:52:00,65.0,60.0,29.61,East,79,1.0,2.0,84,0.00,,,0.00,,2013-03-22 10:52:00,
2013-03-22 06:03:00,65.0,60.0,29.62,South,183,0.0,3.0,85,0.00,,,0.00,,2013-03-22 11:03:00,
2013-03-22 06:12:00,65.0,60.0,29.62,South,183,0.0,3.0,85,0.00,,,0.00,,2013-03-22 11:12:00,
2013-03-22 06:22:00,65.0,60.0,29.62,East,89,0.0,3.0,85,0.00,,,0.00,,2013-03-22 11:22:00,
2013-03-22 06:33:00,65.0,60.0,29.63,South,174,0.0,4.0,85,0.00,,,0.00,,2013-03-22 11:33:00,
2013-03-22 06:42:00,65.0,60.0,29.63,South,174,0.0,4.0,85,0.00,,,0.00,,2013-03-22 11:42:00,
2013-03-22 06:52:00,65.0,60.0,29.63,SE,145,0.0,4.0,85,0.00,,,0.00,,2013-03-22 11:52:00,
2013-03-22 07:02:00,64.0,59.0,29.64,SE,134,0.0,0.0,85,0.00,,,0.00,,2013-03-22 12:02:00,
2013-03-22 07:12:00,64.0,60.0,29.65,SE,134,0.0,0.0,86,0.00,,,0.00,,2013-03-22 12:12:00,
2013-03-22 07:22:00,64.0,60.0,29.65,SE,134,0.0,0.0,86,0.00,,,0.00,,2013-03-22 12:22:00,
2013-03-22 07:32:00,59.0,49.0,29.68,NNW,347,2.0,7.0,70,0.00,,,0.00,,2013-03-22 12:32:00,
2013-03-22 07:42:00,59.0,49.0,29.68,NNW,347,2.0,7.0,70,0.00,,,0.00,,2013-03-22 12:42:00,
2013-03-22 07:52:00,55.0,45.0,29.69,NNE,15,3.0,9.0,69,0.00,,,0.00,,2013-03-22 12:52:00,
2013-03-22 08:02:00,52.0,43.0,29.71,NW,311,3.0,11.0,71,0.00,,,0.00,,2013-03-22 13:02:00,
2013-03-22 08:12:00,52.0,43.0,29.71,NW,311,3.0,11.0,71,0.00,,,0.00,,2013-03-22 13:12:00,
2013-03-22 08:22:00,50.0,42.0,29.73,North,349,1.0,9.0,75,0.00,,,0.00,,2013-03-22 13:22:00,
2013-03-22 08:32:00,49.0,42.0,29.74,West,276,4.0,10.0,78,0.00,,,0.00,,2013-03-22 13:32:00,
2013-03-22 08:42:00,49.0,42.0,29.74,West,276,4.0,10.0,78,0.00,,,0.00,,2013-03-22 13:42:00,
2013-03-22 08:52:00,48.0,42.0,29.75,North,11,2.0,9.0,81,0.00,,,0.00,,2013-03-22 13:52:00,
2013-03-22 09:02:00,48.0,43.0,29.76,WNW,290,2.0,11.0,83,0.00,,,0.00,,2013-03-22 14:02:00,
2013-03-22 09:12:00,48.0,43.0,29.76,WNW,290,2.0,11.0,83,0.00,,,0.00,,2013-03-22 14:12:00,
2013-03-22 09:22:00,47.0,43.0,29.77,West,266,1.0,12.0,85,0.00,,,0.00,,2013-03-22 14:22:00,
2013-03-22 09:32:00,46.0,42.0,29.78,NE,51,2.0,11.0,86,0.00,,,0.00,,2013-03-22 14:32:00,
2013-03-22 09:42:00,46.0,42.0,29.78,NE,51,2.0,11.0,86,0.00,,,0.00,,2013-03-22 14:42:00,
2013-03-22 09:52:00,46.0,42.0,29.78,WNW,291,3.0,7.0,86,0.00,,,0.00,,2013-03-22 14:52:00,
2013-03-22 10:03:00,46.0,42.0,29.78,NNE,20,3.0,9.0,86,0.00,,,0.00,,2013-03-22 15:03:00,
2013-03-22 10:12:00,46.0,42.0,29.78,NNE,20,3.0,9.0,86,0.00,,,0.00,,2013-03-22 15:12:00,
2013-03-22 10:22:00,46.0,42.0,29.79,NNW,347,2.0,9.0,87,0.00,,,0.00,,2013-03-22 15:22:00,
2013-03-22 10:32:00,46.0,42.0,29.80,NE,39,1.0,5.0,87,0.00,,,0.00,,2013-03-22 15:32:00,
2013-03-22 10:42:00,46.0,42.0,29.80,NE,39,1.0,5.0,87,0.00,,,0.00,,2013-03-22 15:42:00,
2013-03-22 10:52:00,46.0,42.0,29.80,ESE,123,3.0,7.0,87,0.00,,,0.00,,2013-03-22 15:52:00,
2013-03-22 11:02:00,46.0,42.0,29.80,East,81,2.0,8.0,86,0.00,,,0.00,,2013-03-22 16:02:00,
2013-03-22 11:13:00,47.0,43.0,29.80,NE,35,1.0,8.0,86,0.00,,,0.00,,2013-03-22 16:13:00,
2013-03-22 11:22:00,47.0,43.0,29.80,NE,35,1.0,8.0,86,0.00,,,0.00,,2013-03-22 16:22:00,
2013-03-22 11:32:00,47.0,43.0,29.81,WSW,257,1.0,5.0,86,0.00,,,0.00,,2013-03-22 16:32:00,
2013-03-22 11:42:00,47.0,43.0,29.81,NW,312,1.0,4.0,86,0.00,,,0.00,,2013-03-22 16:42:00,
2013-03-22 11:52:00,47.0,43.0,29.81,NW,312,1.0,4.0,86,0.00,,,0.00,,2013-03-22 16:52:00,
2013-03-22 12:03:00,47.0,43.0,29.82,WNW,287,1.0,5.0,86,0.00,,,0.00,,2013-03-22 17:03:00,
2013-03-22 12:12:00,47.0,43.0,29.81,ENE,58,0.0,6.0,86,0.00,,,0.00,,2013-03-22 17:12:00,
2013-03-22 12:23:00,47.0,43.0,29.81,ENE,58,0.0,6.0,86,0.00,,,0.00,,2013-03-22 17:23:00,
2013-03-22 12:32:00,47.0,43.0,29.81,NW,312,1.0,6.0,86,0.00,,,0.00,,2013-03-22 17:32:00,
2013-03-22 12:42:00,47.0,43.0,29.81,NW,312,1.0,6.0,86,0.00,,,0.00,,2013-03-22 17:42:00,
2013-03-22 12:52:00,47.0,43.0,29.81,WNW,291,1.0,4.0,86,0.00,,,0.00,,2013-03-22 17:52:00,
2013-03-22 13:02:00,47.0,43.0,29.82,WNW,290,1.0,4.0,87,0.00,,,0.00,,2013-03-22 18:02:00,
2013-03-22 13:12:00,47.0,43.0,29.82,WNW,290,1.0,4.0,87,0.00,,,0.00,,2013-03-22 18:12:00,
2013-03-22 13:22:00,47.0,43.0,29.81,NNE,17,0.0,6.0,87,0.00,,,0.00,,2013-03-22 18:22:00,
2013-03-22 13:33:00,47.0,43.0,29.82,North,11,0.0,5.0,87,0.00,,,0.00,,2013-03-22 18:33:00,
2013-03-22 13:42:00,47.0,43.0,29.82,North,11,0.0,5.0,87,0.00,,,0.00,,2013-03-22 18:42:00,
2013-03-22 13:52:00,48.0,44.0,29.83,NW,309,0.0,-999.0,87,-99.99,,,-99.99,,2013-03-22 18:52:00,
2013-03-22 14:02:00,47.0,43.0,29.82,WNW,293,1.0,5.0,87,0.00,,,0.00,,2013-03-22 19:02:00,
2013-03-22 14:12:00,47.0,44.0,29.82,SSW,203,0.0,5.0,88,0.00,,,0.00,,2013-03-22 19:12:00,
2013-03-22 14:22:00,47.0,44.0,29.82,SSW,203,0.0,5.0,88,0.00,,,0.00,,2013-03-22 19:22:00,
2013-03-22 14:32:00,48.0,45.0,29.81,WNW,283,1.0,4.0,88,0.00,,,0.00,,2013-03-22 19:32:00,
2013-03-22 14:42:00,48.0,45.0,29.81,WNW,283,1.0,4.0,88,0.00,,,0.00,,2013-03-22 19:42:00,
2013-03-22 14:52:00,48.0,45.0,29.80,NNE,27,1.0,5.0,88,0.00,,,0.00,,2013-03-22 19:52:00,
2013-03-22 15:02:00,47.0,44.0,29.81,WNW,294,0.0,7.0,88,0.00,,,0.00,,2013-03-22 20:02:00,
2013-03-22 15:12:00,47.0,44.0,29.81,West,280,2.0,8.0,88,0.00,,,0.00,,2013-03-22 20:12:00,
2013-03-22 15:22:00,47.0,44.0,29.81,West,280,2.0,8.0,88,0.00,,,0.00,,2013-03-22 20:22:00,
2013-03-22 15:32:00,46.0,43.0,29.81,WNW,283,1.0,8.0,89,0.00,,,0.00,,2013-03-22 20:32:00,
2013-03-22 15:42:00,46.0,43.0,29.81,WNW,283,1.0,8.0,89,0.00,,,0.00,,2013-03-22 20:42:00,
2013-03-22 15:52:00,47.0,44.0,29.80,West,264,2.0,8.0,88,0.00,,,0.00,,2013-03-22 20:52:00,
2013-03-22 16:03:00,47.0,43.0,29.80,North,358,0.0,6.0,87,0.00,,,0.00,,2013-03-22 21:03:00,
2013-03-22 16:12:00,47.0,43.0,29.80,NNE,15,1.0,6.0,86,0.00,,,0.00,,2013-03-22 21:12:00,
2013-03-22 16:22:00,47.0,43.0,29.80,NNE,15,1.0,6.0,86,0.00,,,0.00,,2013-03-22 21:22:00,
2013-03-22 16:32:00,47.0,43.0,29.80,WSW,245,0.0,7.0,86,0.00,,,0.00,,2013-03-22 21:32:00,
2013-03-22 16:42:00,47.0,43.0,29.80,WSW,245,0.0,7.0,86,0.00,,,0.00,,2013-03-22 21:42:00,
2013-03-22 16:52:00,48.0,44.0,29.80,WNW,290,1.0,7.0,85,0.00,,,0.00,,2013-03-22 21:52:00,
2013-03-22 17:03:00,48.0,44.0,29.81,SSE,160,1.0,6.0,85,0.00,,,0.00,,2013-03-22 22:03:00,
2013-03-22 17:12:00,48.0,44.0,29.81,SSE,160,1.0,6.0,85,0.00,,,0.00,,2013-03-22 22:12:00,
2013-03-22 17:23:00,47.0,43.0,29.81,West,268,0.0,7.0,85,0.00,,,0.00,,2013-03-22 22:23:00,
2013-03-22 17:32:00,47.0,43.0,29.82,NW,323,1.0,4.0,86,0.00,,,0.00,,2013-03-22 22:32:00,
2013-03-22 17:42:00,47.0,43.0,29.82,NW,323,1.0,4.0,86,0.00,,,0.00,,2013-03-22 22:42:00,
2013-03-22 17:52:00,47.0,43.0,29.82,NE,42,1.0,5.0,86,0.00,,,0.00,,2013-03-22 22:52:00,
2013-03-22 18:02:00,47.0,43.0,29.83,West,259,0.0,2.0,86,0.00,,,0.00,,2013-03-22 23:02:00,
2013-03-22 18:12:00,47.0,43.0,29.83,West,259,0.0,2.0,86,0.00,,,0.00,,2013-03-22 23:12:00,
2013-03-22 18:22:00,47.0,43.0,29.83,NE,44,1.0,5.0,86,0.00,,,0.00,,2013-03-22 23:22:00,
2013-03-22 18:32:00,47.0,43.0,29.83,North,350,0.0,2.0,86,0.00,,,0.00,,2013-03-22 23:32:00,
2013-03-22 18:42:00,47.0,43.0,29.83,North,350,0.0,2.0,86,0.00,,,0.00,,2013-03-22 23:42:00,
2013-03-22 18:52:00,47.0,43.0,29.83,NW,322,0.0,2.0,86,0.00,,,0.00,,2013-03-22 23:52:00,
2013-03-22 19:02:00,47.0,43.0,29.83,NE,46,0.0,4.0,86,0.00,,,0.00,,2013-03-23 00:02:00,
2013-03-22 19:12:00,47.0,43.0,29.83,NE,46,0.0,4.0,86,0.00,,,0.00,,2013-03-23 00:12:00,
2013-03-22 19:23:00,47.0,43.0,29.84,SE,131,0.0,3.0,87,0.00,,,0.00,,2013-03-23 00:23:00,
2013-03-22 19:32:00,46.0,43.0,29.84,WSW,255,0.0,4.0,88,0.00,,,0.00,,2013-03-23 00:32:00,
2013-03-22 19:42:00,46.0,43.0,29.85,NW,312,0.0,3.0,89,0.00,,,0.00,,2013-03-23 00:42:00,
2013-03-22 19:52:00,46.0,43.0,29.85,NW,312,0.0,3.0,89,0.00,,,0.00,,2013-03-23 00:52:00,
2013-03-22 20:03:00,46.0,43.0,29.84,NW,317,1.0,3.0,90,0.00,,,0.00,,2013-03-23 01:03:00,
2013-03-22 20:12:00,46.0,43.0,29.84,NW,317,1.0,3.0,90,0.00,,,0.00,,2013-03-23 01:12:00,
2013-03-22 20:22:00,46.0,44.0,29.84,WNW,297,0.0,4.0,91,0.00,,,0.00,,2013-03-23 01:22:00,
2013-03-22 20:32:00,46.0,44.0,29.85,West,276,0.0,3.0,92,0.00,,,0.00,,2013-03-23 01:32:00,
2013-03-22 20:42:00,46.0,44.0,29.85,West,276,0.0,3.0,92,0.00,,,0.00,,2013-03-23 01:42:00,
2013-03-22 20:52:00,46.0,44.0,29.84,NE,44,0.0,1.0,92,0.00,,,0.00,,2013-03-23 01:52:00,
2013-03-22 21:02:00,45.0,43.0,29.83,NW,316,2.0,4.0,92,0.00,,,0.00,,2013-03-23 02:02:00,
2013-03-22 21:12:00,45.0,43.0,29.83,NW,316,2.0,4.0,92,0.00,,,0.00,,2013-03-23 02:12:00,
2013-03-22 21:22:00,45.0,43.0,29.84,ENE,70,0.0,3.0,92,0.00,,,0.00,,2013-03-23 02:22:00,
2013-03-22 21:32:00,45.0,43.0,29.85,NW,326,0.0,3.0,92,0.00,,,0.00,,2013-03-23 02:32:00,
2013-03-22 21:42:00,45.0,43.0,29.85,NW,326,0.0,3.0,92,0.00,,,0.00,,2013-03-23 02:42:00,
2013-03-22 21:52:00,46.0,44.0,29.86,West,281,0.0,1.0,91,0.00,,,0.00,,2013-03-23 02:52:00,
2013-03-22 22:02:00,46.0,44.0,29.88,NW,318,0.0,1.0,91,0.00,,,0.00,,2013-03-23 03:02:00,
2013-03-22 22:12:00,46.0,44.0,29.88,NW,318,0.0,1.0,91,0.00,,,0.00,,2013-03-23 03:12:00,
2013-03-22 22:22:00,46.0,44.0,29.89,WNW,285,0.0,2.0,91,0.00,,,0.00,,2013-03-23 03:22:00,
2013-03-22 22:33:00,46.0,43.0,29.89,ESE,103,0.0,5.0,90,0.00,,,0.00,,2013-03-23 03:33:00,
2013-03-22 22:43:00,46.0,43.0,29.89,ESE,103,0.0,5.0,90,0.00,,,0.00,,2013-03-23 03:43:00,
2013-03-22 22:53:00,46.0,43.0,29.90,WNW,287,1.0,3.0,90,0.00,,,0.00,,2013-03-23 03:53:00,
2013-03-22 23:02:00,46.0,44.0,29.89,West,281,0.0,2.0,91,0.00,,,0.00,,2013-03-23 04:02:00,
2013-03-22 23:12:00,46.0,44.0,29.89,West,281,0.0,2.0,91,0.00,,,0.00,,2013-03-23 04:12:00,
2013-03-22 23:23:00,46.0,44.0,29.88,NNE,26,0.0,4.0,92,0.00,,,0.00,,2013-03-23 04:23:00,
2013-03-22 23:32:00,46.0,44.0,29.88,WNW,284,0.0,3.0,92,0.00,,,0.00,,2013-03-23 04:32:00,
2013-03-22 23:43:00,46.0,44.0,29.88,WNW,284,0.0,3.0,92,0.00,,,0.00,,2013-03-23 04:43:00,
2013-03-22 23:53:00,46.0,44.0,29.88,NW,325,0.0,5.0,92,0.00,,,0.00,,2013-03-23 04:53:00,